Aviation Digital Data Service (ADDS)

Output produced by METARs form (1223 UTC 27 January 2015)
found at http://aviationweather.gov/adds/metars/
 
KPHX 271120Z 2712/2812 09004KT P6SM BKN060 BKN100 
     TEMPO 2714/2716 BKN050 
     FM271900 VRB03KT P6SM BKN070 
     FM272200 28003KT P6SM SCT070 
     FM280600 10003KT P6SM SKC